sensor_id;sensor_type;location;lat;lon;timestamp;pressure;altitude;pressure_sealevel;temperature;humidity
56070;BME280;41944;52.078;-0.058;2022-12-05T00:00:48;101782.61;;;5.57;100.00
56070;BME280;41944;52.078;-0.058;2022-12-05T00:03:16;101787.13;;;5.75;100.00
56070;BME280;41944;52.078;-0.058;2022-12-05T00:05:43;101784.39;;;5.55;100.00
56070;BME280;41944;52.078;-0.058;2022-12-05T00:08:10;101787.06;;;5.62;100.00
56070;BME280;41944;52.078;-0.058;2022-12-05T00:10:38;101785.97;;;5.28;100.00
56070;BME280;41944;52.078;-0.058;2022-12-05T00:13:06;101782.11;;;5.40;100.00
56070;BME280;41944;52.078;-0.058;2022-12-05T00:15:36;101782.77;;;5.66;100.00
56070;BME280;41944;52.078;-0.058;2022-12-05T00:18:04;101783.94;;;5.79;100.00
56070;BME280;41944;52.078;-0.058;2022-12-05T00:20:31;101781.98;;;5.79;100.00
56070;BME280;41944;52.078;-0.058;2022-12-05T00:22:59;101785.90;;;5.79;99.72
56070;BME280;41944;52.078;-0.058;2022-12-05T00:25:26;101780.96;;;5.84;99.78
56070;BME280;41944;52.078;-0.058;2022-12-05T00:27:54;101787.55;;;5.94;98.49
56070;BME280;41944;52.078;-0.058;2022-12-05T00:30:21;101792.27;;;5.85;98.49
56070;BME280;41944;52.078;-0.058;2022-12-05T00:32:48;101789.43;;;5.81;98.54
56070;BME280;41944;52.078;-0.058;2022-12-05T00:35:15;101787.56;;;5.82;99.09
56070;BME280;41944;52.078;-0.058;2022-12-05T00:37:42;101794.60;;;5.84;98.60
56070;BME280;41944;52.078;-0.058;2022-12-05T00:40:09;101792.33;;;5.75;99.24
56070;BME280;41944;52.078;-0.058;2022-12-05T00:42:36;101782.61;;;5.90;98.90
56070;BME280;41944;52.078;-0.058;2022-12-05T00:45:05;101781.53;;;5.89;98.19
56070;BME280;41944;52.078;-0.058;2022-12-05T00:47:34;101783.30;;;5.84;99.11
56070;BME280;41944;52.078;-0.058;2022-12-05T00:50:01;101782.93;;;5.87;98.82
56070;BME280;41944;52.078;-0.058;2022-12-05T00:52:29;101783.05;;;5.76;99.56
56070;BME280;41944;52.078;-0.058;2022-12-05T00:54:56;101782.49;;;5.75;99.60
56070;BME280;41944;52.078;-0.058;2022-12-05T00:57:23;101775.16;;;5.81;99.48
56070;BME280;41944;52.078;-0.058;2022-12-05T00:59:52;101775.35;;;5.95;99.16
56070;BME280;41944;52.078;-0.058;2022-12-05T01:02:19;101776.72;;;5.88;99.08
56070;BME280;41944;52.078;-0.058;2022-12-05T01:04:46;101773.16;;;5.88;99.25
56070;BME280;41944;52.078;-0.058;2022-12-05T01:07:13;101778.62;;;6.05;99.04
56070;BME280;41944;52.078;-0.058;2022-12-05T01:09:39;101778.97;;;6.03;98.42
56070;BME280;41944;52.078;-0.058;2022-12-05T01:12:07;101780.68;;;6.07;98.39
56070;BME280;41944;52.078;-0.058;2022-12-05T01:14:34;101780.68;;;5.91;99.73
56070;BME280;41944;52.078;-0.058;2022-12-05T01:17:01;101780.76;;;5.90;99.64
56070;BME280;41944;52.078;-0.058;2022-12-05T01:19:30;101781.35;;;5.90;99.91
56070;BME280;41944;52.078;-0.058;2022-12-05T01:21:58;101784.79;;;5.80;100.00
56070;BME280;41944;52.078;-0.058;2022-12-05T01:24:26;101783.94;;;5.84;100.00
56070;BME280;41944;52.078;-0.058;2022-12-05T01:26:54;101784.36;;;5.88;100.00
56070;BME280;41944;52.078;-0.058;2022-12-05T01:29:23;101786.45;;;5.83;100.00
56070;BME280;41944;52.078;-0.058;2022-12-05T01:31:50;101793.11;;;5.79;100.00
56070;BME280;41944;52.078;-0.058;2022-12-05T01:34:18;101791.28;;;5.68;100.00
56070;BME280;41944;52.078;-0.058;2022-12-05T01:36:46;101794.11;;;5.54;100.00
56070;BME280;41944;52.078;-0.058;2022-12-05T01:39:14;101797.68;;;5.72;100.00
56070;BME280;41944;52.078;-0.058;2022-12-05T01:41:45;101799.18;;;5.89;100.00
56070;BME280;41944;52.078;-0.058;2022-12-05T01:45:23;101796.68;;;5.99;100.00
56070;BME280;41944;52.078;-0.058;2022-12-05T01:47:55;101794.08;;;5.95;99.67
56070;BME280;41944;52.078;-0.058;2022-12-05T01:50:23;101794.49;;;5.66;100.00
56070;BME280;41944;52.078;-0.058;2022-12-05T01:52:51;101793.37;;;5.88;100.00
56070;BME280;41944;52.078;-0.058;2022-12-05T01:55:18;101798.17;;;5.83;100.00
56070;BME280;41944;52.078;-0.058;2022-12-05T01:57:46;101799.08;;;5.85;100.00
56070;BME280;41944;52.078;-0.058;2022-12-05T02:00:16;101792.39;;;6.06;99.12
56070;BME280;41944;52.078;-0.058;2022-12-05T02:02:48;101790.77;;;6.02;99.15
56070;BME280;41944;52.078;-0.058;2022-12-05T02:05:20;101789.21;;;6.10;99.33
56070;BME280;41944;52.078;-0.058;2022-12-05T02:07:48;101792.71;;;6.10;98.96
56070;BME280;41944;52.078;-0.058;2022-12-05T02:10:15;101792.39;;;6.10;98.52
56070;BME280;41944;52.078;-0.058;2022-12-05T02:12:42;101793.51;;;6.14;98.78
56070;BME280;41944;52.078;-0.058;2022-12-05T02:15:22;101797.07;;;5.99;98.27
56070;BME280;41944;52.078;-0.058;2022-12-05T02:18:01;101797.05;;;6.01;98.49
56070;BME280;41944;52.078;-0.058;2022-12-05T02:20:40;101795.31;;;6.12;97.77
56070;BME280;41944;52.078;-0.058;2022-12-05T02:23:31;101793.99;;;5.91;99.09
56070;BME280;41944;52.078;-0.058;2022-12-05T02:27:23;101794.14;;;5.96;99.04
56070;BME280;41944;52.078;-0.058;2022-12-05T02:30:03;101794.40;;;5.92;99.00
56070;BME280;41944;52.078;-0.058;2022-12-05T02:32:37;101797.81;;;5.62;100.00
56070;BME280;41944;52.078;-0.058;2022-12-05T02:35:16;101793.70;;;5.88;99.78
56070;BME280;41944;52.078;-0.058;2022-12-05T02:37:50;101798.52;;;5.87;99.19
56070;BME280;41944;52.078;-0.058;2022-12-05T02:40:24;101794.48;;;6.02;98.28
56070;BME280;41944;52.078;-0.058;2022-12-05T02:42:59;101795.66;;;5.95;99.03
56070;BME280;41944;52.078;-0.058;2022-12-05T02:45:29;101794.36;;;6.13;98.19
56070;BME280;41944;52.078;-0.058;2022-12-05T02:47:59;101795.66;;;6.24;97.00
56070;BME280;41944;52.078;-0.058;2022-12-05T02:50:30;101798.96;;;6.12;96.93
56070;BME280;41944;52.078;-0.058;2022-12-05T02:53:02;101798.06;;;6.18;97.19
56070;BME280;41944;52.078;-0.058;2022-12-05T02:55:31;101798.96;;;6.14;97.05
56070;BME280;41944;52.078;-0.058;2022-12-05T02:58:03;101797.80;;;6.09;97.16
56070;BME280;41944;52.078;-0.058;2022-12-05T03:00:31;101800.72;;;6.04;97.34
56070;BME280;41944;52.078;-0.058;2022-12-05T03:02:59;101799.18;;;6.14;96.75
56070;BME280;41944;52.078;-0.058;2022-12-05T03:05:31;101802.08;;;6.25;96.37
56070;BME280;41944;52.078;-0.058;2022-12-05T03:08:06;101804.27;;;6.18;95.60
56070;BME280;41944;52.078;-0.058;2022-12-05T03:10:36;101804.66;;;6.10;96.15
56070;BME280;41944;52.078;-0.058;2022-12-05T03:13:07;101806.04;;;6.28;95.16
56070;BME280;41944;52.078;-0.058;2022-12-05T03:15:40;101806.74;;;6.29;94.76
56070;BME280;41944;52.078;-0.058;2022-12-05T03:18:14;101807.44;;;6.13;94.70
56070;BME280;41944;52.078;-0.058;2022-12-05T03:20:46;101807.89;;;6.28;95.08
56070;BME280;41944;52.078;-0.058;2022-12-05T03:23:19;101808.05;;;6.33;94.10
56070;BME280;41944;52.078;-0.058;2022-12-05T03:25:51;101809.33;;;6.32;94.25
56070;BME280;41944;52.078;-0.058;2022-12-05T03:28:27;101812.29;;;6.00;95.18
56070;BME280;41944;52.078;-0.058;2022-12-05T03:31:01;101814.16;;;6.07;95.71
56070;BME280;41944;52.078;-0.058;2022-12-05T03:33:36;101821.83;;;5.94;96.21
56070;BME280;41944;52.078;-0.058;2022-12-05T03:36:11;101819.42;;;6.01;96.64
56070;BME280;41944;52.078;-0.058;2022-12-05T03:38:46;101823.38;;;6.18;95.34
56070;BME280;41944;52.078;-0.058;2022-12-05T03:41:21;101827.29;;;6.08;95.02
56070;BME280;41944;52.078;-0.058;2022-12-05T03:43:56;101824.65;;;6.26;94.46
56070;BME280;41944;52.078;-0.058;2022-12-05T03:46:26;101823.21;;;6.20;94.24
56070;BME280;41944;52.078;-0.058;2022-12-05T03:49:00;101828.21;;;6.29;94.13
56070;BME280;41944;52.078;-0.058;2022-12-05T03:51:34;101826.37;;;6.19;94.67
56070;BME280;41944;52.078;-0.058;2022-12-05T03:54:05;101829.46;;;6.20;94.86
56070;BME280;41944;52.078;-0.058;2022-12-05T03:56:37;101831.98;;;6.13;94.41
56070;BME280;41944;52.078;-0.058;2022-12-05T03:59:11;101829.54;;;6.21;94.78
56070;BME280;41944;52.078;-0.058;2022-12-05T04:01:41;101833.65;;;6.30;93.98
56070;BME280;41944;52.078;-0.058;2022-12-05T04:04:13;101838.80;;;6.15;94.10
56070;BME280;41944;52.078;-0.058;2022-12-05T04:06:46;101832.68;;;6.26;93.77
56070;BME280;41944;52.078;-0.058;2022-12-05T04:09:17;101832.58;;;6.16;94.11
56070;BME280;41944;52.078;-0.058;2022-12-05T04:11:49;101836.61;;;6.25;93.79
56070;BME280;41944;52.078;-0.058;2022-12-05T04:14:21;101839.88;;;6.35;93.57
56070;BME280;41944;52.078;-0.058;2022-12-05T04:16:53;101840.89;;;6.34;93.42
56070;BME280;41944;52.078;-0.058;2022-12-05T04:19:25;101842.70;;;6.24;93.99
56070;BME280;41944;52.078;-0.058;2022-12-05T04:21:56;101845.52;;;6.44;92.58
56070;BME280;41944;52.078;-0.058;2022-12-05T04:24:27;101845.04;;;6.47;92.43
56070;BME280;41944;52.078;-0.058;2022-12-05T04:27:14;101849.14;;;6.05;94.54
56070;BME280;41944;52.078;-0.058;2022-12-05T04:29:51;101846.26;;;6.18;94.43
56070;BME280;41944;52.078;-0.058;2022-12-05T04:32:21;101844.78;;;6.37;93.72
56070;BME280;41944;52.078;-0.058;2022-12-05T04:34:56;101845.82;;;6.40;93.12
56070;BME280;41944;52.078;-0.058;2022-12-05T04:37:28;101846.16;;;6.31;93.57
56070;BME280;41944;52.078;-0.058;2022-12-05T04:40:01;101848.17;;;6.35;93.09
56070;BME280;41944;52.078;-0.058;2022-12-05T04:42:31;101851.19;;;5.89;95.03
56070;BME280;41944;52.078;-0.058;2022-12-05T04:45:03;101854.80;;;6.08;95.69
56070;BME280;41944;52.078;-0.058;2022-12-05T04:47:36;101853.70;;;6.06;95.46
56070;BME280;41944;52.078;-0.058;2022-12-05T04:50:07;101853.36;;;6.23;94.94
56070;BME280;41944;52.078;-0.058;2022-12-05T04:52:37;101848.90;;;6.49;93.45
56070;BME280;41944;52.078;-0.058;2022-12-05T04:55:08;101852.93;;;6.40;93.66
56070;BME280;41944;52.078;-0.058;2022-12-05T04:57:41;101857.79;;;6.43;93.25
56070;BME280;41944;52.078;-0.058;2022-12-05T05:00:11;101865.11;;;6.23;94.14
56070;BME280;41944;52.078;-0.058;2022-12-05T05:02:42;101860.46;;;6.45;93.53
56070;BME280;41944;52.078;-0.058;2022-12-05T05:05:13;101858.25;;;6.39;93.16
56070;BME280;41944;52.078;-0.058;2022-12-05T05:07:43;101861.98;;;6.29;94.17
56070;BME280;41944;52.078;-0.058;2022-12-05T05:10:13;101868.33;;;6.23;94.46
56070;BME280;41944;52.078;-0.058;2022-12-05T05:12:41;101866.32;;;6.39;94.12
56070;BME280;41944;52.078;-0.058;2022-12-05T05:15:08;101866.14;;;6.28;94.46
56070;BME280;41944;52.078;-0.058;2022-12-05T05:17:36;101871.43;;;6.17;95.00
56070;BME280;41944;52.078;-0.058;2022-12-05T05:20:04;101866.97;;;6.38;94.25
56070;BME280;41944;52.078;-0.058;2022-12-05T05:22:31;101872.68;;;6.17;94.79
56070;BME280;41944;52.078;-0.058;2022-12-05T05:24:58;101867.55;;;6.44;94.11
56070;BME280;41944;52.078;-0.058;2022-12-05T05:27:25;101869.41;;;6.07;95.76
56070;BME280;41944;52.078;-0.058;2022-12-05T05:29:52;101868.08;;;6.33;94.62
56070;BME280;41944;52.078;-0.058;2022-12-05T05:32:19;101868.10;;;6.17;94.96
56070;BME280;41944;52.078;-0.058;2022-12-05T05:34:46;101867.01;;;6.24;95.25
56070;BME280;41944;52.078;-0.058;2022-12-05T05:37:13;101867.86;;;6.28;94.73
56070;BME280;41944;52.078;-0.058;2022-12-05T05:39:40;101861.01;;;6.43;94.21
56070;BME280;41944;52.078;-0.058;2022-12-05T05:42:07;101866.50;;;6.27;94.20
56070;BME280;41944;52.078;-0.058;2022-12-05T05:44:34;101868.31;;;6.53;93.56
56070;BME280;41944;52.078;-0.058;2022-12-05T05:47:01;101875.58;;;6.37;93.83
56070;BME280;41944;52.078;-0.058;2022-12-05T05:49:29;101880.05;;;5.91;96.36
56070;BME280;41944;52.078;-0.058;2022-12-05T05:51:55;101883.75;;;6.23;95.96
56070;BME280;41944;52.078;-0.058;2022-12-05T05:54:23;101876.46;;;6.30;95.48
56070;BME280;41944;52.078;-0.058;2022-12-05T05:56:50;101881.97;;;6.17;95.93
56070;BME280;41944;52.078;-0.058;2022-12-05T05:59:17;101878.11;;;6.13;96.34
56070;BME280;41944;52.078;-0.058;2022-12-05T06:01:43;101882.16;;;6.09;97.32
56070;BME280;41944;52.078;-0.058;2022-12-05T06:04:10;101884.62;;;6.31;95.90
56070;BME280;41944;52.078;-0.058;2022-12-05T06:06:37;101884.67;;;6.30;95.66
56070;BME280;41944;52.078;-0.058;2022-12-05T06:09:06;101885.10;;;6.25;96.41
56070;BME280;41944;52.078;-0.058;2022-12-05T06:11:33;101884.13;;;6.48;95.05
56070;BME280;41944;52.078;-0.058;2022-12-05T06:14:00;101882.23;;;6.29;95.46
56070;BME280;41944;52.078;-0.058;2022-12-05T06:16:28;101890.43;;;6.36;95.56
56070;BME280;41944;52.078;-0.058;2022-12-05T06:18:56;101888.31;;;6.37;95.92
56070;BME280;41944;52.078;-0.058;2022-12-05T06:21:24;101888.35;;;6.49;95.23
56070;BME280;41944;52.078;-0.058;2022-12-05T06:23:51;101894.40;;;6.24;96.31
56070;BME280;41944;52.078;-0.058;2022-12-05T06:26:19;101895.72;;;6.39;96.63
56070;BME280;41944;52.078;-0.058;2022-12-05T06:28:46;101892.98;;;6.43;96.42
56070;BME280;41944;52.078;-0.058;2022-12-05T06:31:15;101897.76;;;6.45;96.38
56070;BME280;41944;52.078;-0.058;2022-12-05T06:33:43;101892.38;;;6.57;95.31
56070;BME280;41944;52.078;-0.058;2022-12-05T06:36:12;101898.19;;;6.55;95.34
56070;BME280;41944;52.078;-0.058;2022-12-05T06:38:40;101904.53;;;6.42;96.44
56070;BME280;41944;52.078;-0.058;2022-12-05T06:41:10;101903.70;;;6.54;96.04
56070;BME280;41944;52.078;-0.058;2022-12-05T06:43:38;101901.22;;;6.50;96.17
56070;BME280;41944;52.078;-0.058;2022-12-05T06:46:05;101898.18;;;6.65;95.68
56070;BME280;41944;52.078;-0.058;2022-12-05T06:48:33;101897.66;;;6.48;97.06
56070;BME280;41944;52.078;-0.058;2022-12-05T06:51:00;101893.54;;;6.51;96.64
56070;BME280;41944;52.078;-0.058;2022-12-05T06:53:28;101893.09;;;6.59;96.38
56070;BME280;41944;52.078;-0.058;2022-12-05T06:55:57;101896.38;;;6.68;96.74
56070;BME280;41944;52.078;-0.058;2022-12-05T06:58:25;101895.95;;;6.62;96.95
56070;BME280;41944;52.078;-0.058;2022-12-05T07:00:52;101902.89;;;6.49;98.53
56070;BME280;41944;52.078;-0.058;2022-12-05T07:03:19;101897.99;;;6.66;97.99
56070;BME280;41944;52.078;-0.058;2022-12-05T07:05:46;101900.68;;;6.67;98.04
56070;BME280;41944;52.078;-0.058;2022-12-05T07:08:13;101904.10;;;6.76;97.95
56070;BME280;41944;52.078;-0.058;2022-12-05T07:10:40;101913.79;;;6.40;100.00
56070;BME280;41944;52.078;-0.058;2022-12-05T07:13:07;101913.76;;;6.83;98.97
56070;BME280;41944;52.078;-0.058;2022-12-05T07:15:35;101911.75;;;6.66;100.00
56070;BME280;41944;52.078;-0.058;2022-12-05T07:18:02;101913.49;;;6.76;99.99
56070;BME280;41944;52.078;-0.058;2022-12-05T07:20:29;101922.65;;;6.51;100.00
56070;BME280;41944;52.078;-0.058;2022-12-05T07:22:56;101920.20;;;6.80;100.00
56070;BME280;41944;52.078;-0.058;2022-12-05T07:25:24;101926.38;;;6.86;100.00
56070;BME280;41944;52.078;-0.058;2022-12-05T07:27:51;101929.76;;;6.99;100.00
56070;BME280;41944;52.078;-0.058;2022-12-05T07:30:19;101935.98;;;7.01;99.93
56070;BME280;41944;52.078;-0.058;2022-12-05T07:32:45;101941.51;;;6.96;100.00
56070;BME280;41944;52.078;-0.058;2022-12-05T07:35:13;101946.94;;;7.15;99.79
56070;BME280;41944;52.078;-0.058;2022-12-05T07:37:40;101948.65;;;7.24;99.07
56070;BME280;41944;52.078;-0.058;2022-12-05T07:40:08;101948.93;;;7.20;99.09
56070;BME280;41944;52.078;-0.058;2022-12-05T07:42:36;101948.83;;;7.14;99.68
56070;BME280;41944;52.078;-0.058;2022-12-05T07:45:03;101952.92;;;7.16;100.00
56070;BME280;41944;52.078;-0.058;2022-12-05T07:47:30;101952.48;;;7.22;100.00
56070;BME280;41944;52.078;-0.058;2022-12-05T07:49:57;101955.44;;;7.23;100.00
56070;BME280;41944;52.078;-0.058;2022-12-05T07:52:24;101955.14;;;7.16;100.00
56070;BME280;41944;52.078;-0.058;2022-12-05T07:54:51;101960.84;;;7.11;100.00
56070;BME280;41944;52.078;-0.058;2022-12-05T07:57:18;101959.69;;;7.08;100.00
56070;BME280;41944;52.078;-0.058;2022-12-05T07:59:46;101961.90;;;7.11;100.00
56070;BME280;41944;52.078;-0.058;2022-12-05T08:02:13;101961.77;;;6.97;100.00
56070;BME280;41944;52.078;-0.058;2022-12-05T08:04:40;101964.42;;;7.06;100.00
56070;BME280;41944;52.078;-0.058;2022-12-05T08:07:09;101967.82;;;7.15;100.00
56070;BME280;41944;52.078;-0.058;2022-12-05T08:09:36;101969.29;;;6.99;100.00
56070;BME280;41944;52.078;-0.058;2022-12-05T08:12:03;101972.85;;;7.23;100.00
56070;BME280;41944;52.078;-0.058;2022-12-05T08:14:30;101974.94;;;7.15;100.00
56070;BME280;41944;52.078;-0.058;2022-12-05T08:16:57;101974.69;;;7.17;100.00
56070;BME280;41944;52.078;-0.058;2022-12-05T08:19:24;101978.02;;;7.24;100.00
56070;BME280;41944;52.078;-0.058;2022-12-05T08:21:53;101975.61;;;7.30;100.00
56070;BME280;41944;52.078;-0.058;2022-12-05T08:24:20;101977.04;;;7.33;100.00
56070;BME280;41944;52.078;-0.058;2022-12-05T08:26:48;101981.28;;;7.38;100.00
56070;BME280;41944;52.078;-0.058;2022-12-05T08:29:15;101980.05;;;7.27;100.00
56070;BME280;41944;52.078;-0.058;2022-12-05T08:31:45;101977.53;;;7.39;100.00
56070;BME280;41944;52.078;-0.058;2022-12-05T08:34:14;101978.17;;;7.32;100.00
56070;BME280;41944;52.078;-0.058;2022-12-05T08:36:41;101983.78;;;7.36;100.00
56070;BME280;41944;52.078;-0.058;2022-12-05T08:39:12;101990.81;;;7.33;100.00
56070;BME280;41944;52.078;-0.058;2022-12-05T08:41:40;101986.27;;;7.27;100.00
56070;BME280;41944;52.078;-0.058;2022-12-05T08:44:10;101987.17;;;7.36;100.00
56070;BME280;41944;52.078;-0.058;2022-12-05T08:46:37;101986.35;;;7.40;100.00
56070;BME280;41944;52.078;-0.058;2022-12-05T08:49:05;101988.95;;;7.43;100.00
56070;BME280;41944;52.078;-0.058;2022-12-05T08:51:32;101991.49;;;7.11;100.00
56070;BME280;41944;52.078;-0.058;2022-12-05T08:54:01;101991.77;;;7.21;100.00
56070;BME280;41944;52.078;-0.058;2022-12-05T08:56:29;101992.57;;;7.45;100.00
56070;BME280;41944;52.078;-0.058;2022-12-05T08:58:56;101999.09;;;7.50;100.00
56070;BME280;41944;52.078;-0.058;2022-12-05T09:01:24;102003.09;;;7.43;100.00
56070;BME280;41944;52.078;-0.058;2022-12-05T09:03:51;102006.04;;;7.34;100.00
56070;BME280;41944;52.078;-0.058;2022-12-05T09:06:21;102007.39;;;7.41;100.00
56070;BME280;41944;52.078;-0.058;2022-12-05T09:08:51;102012.94;;;7.07;100.00
56070;BME280;41944;52.078;-0.058;2022-12-05T09:11:20;102009.04;;;7.38;100.00
56070;BME280;41944;52.078;-0.058;2022-12-05T09:13:48;102009.11;;;7.29;100.00
56070;BME280;41944;52.078;-0.058;2022-12-05T09:16:18;102007.04;;;7.45;100.00
56070;BME280;41944;52.078;-0.058;2022-12-05T09:18:47;102012.88;;;7.48;100.00
56070;BME280;41944;52.078;-0.058;2022-12-05T09:21:16;102017.96;;;7.37;100.00
56070;BME280;41944;52.078;-0.058;2022-12-05T09:23:44;102024.96;;;7.24;100.00
56070;BME280;41944;52.078;-0.058;2022-12-05T09:26:14;102021.87;;;7.29;100.00
56070;BME280;41944;52.078;-0.058;2022-12-05T09:28:43;102025.20;;;7.43;100.00
56070;BME280;41944;52.078;-0.058;2022-12-05T09:31:11;102026.68;;;7.57;100.00
56070;BME280;41944;52.078;-0.058;2022-12-05T09:33:39;102028.05;;;7.71;100.00
56070;BME280;41944;52.078;-0.058;2022-12-05T09:36:10;102028.14;;;7.64;100.00
56070;BME280;41944;52.078;-0.058;2022-12-05T09:38:37;102028.79;;;7.72;100.00
56070;BME280;41944;52.078;-0.058;2022-12-05T09:41:13;102031.65;;;7.64;100.00
56070;BME280;41944;52.078;-0.058;2022-12-05T09:43:49;102029.74;;;7.92;100.00
56070;BME280;41944;52.078;-0.058;2022-12-05T09:46:23;102032.21;;;7.85;100.00
56070;BME280;41944;52.078;-0.058;2022-12-05T09:48:53;102032.88;;;7.63;100.00
56070;BME280;41944;52.078;-0.058;2022-12-05T09:51:21;102033.94;;;7.85;100.00
56070;BME280;41944;52.078;-0.058;2022-12-05T09:53:49;102042.95;;;7.98;100.00
56070;BME280;41944;52.078;-0.058;2022-12-05T09:56:22;102040.18;;;7.76;100.00
56070;BME280;41944;52.078;-0.058;2022-12-05T09:58:52;102041.74;;;7.68;100.00
56070;BME280;41944;52.078;-0.058;2022-12-05T10:01:26;102042.31;;;7.49;100.00
56070;BME280;41944;52.078;-0.058;2022-12-05T10:04:22;102044.19;;;7.62;100.00
56070;BME280;41944;52.078;-0.058;2022-12-05T10:06:59;102042.29;;;7.95;100.00
56070;BME280;41944;52.078;-0.058;2022-12-05T10:09:38;102042.66;;;7.70;100.00
56070;BME280;41944;52.078;-0.058;2022-12-05T10:12:18;102042.58;;;7.84;100.00
56070;BME280;41944;52.078;-0.058;2022-12-05T10:14:54;102044.32;;;7.98;100.00
56070;BME280;41944;52.078;-0.058;2022-12-05T10:17:30;102044.74;;;8.07;100.00
56070;BME280;41944;52.078;-0.058;2022-12-05T10:20:00;102048.04;;;8.21;100.00
56070;BME280;41944;52.078;-0.058;2022-12-05T10:22:38;102045.25;;;8.17;100.00
56070;BME280;41944;52.078;-0.058;2022-12-05T10:25:10;102046.45;;;7.95;100.00
56070;BME280;41944;52.078;-0.058;2022-12-05T10:27:42;102046.31;;;8.02;100.00
56070;BME280;41944;52.078;-0.058;2022-12-05T10:30:15;102047.18;;;8.18;100.00
56070;BME280;41944;52.078;-0.058;2022-12-05T10:32:50;102045.28;;;8.04;100.00
56070;BME280;41944;52.078;-0.058;2022-12-05T10:35:20;102050.11;;;8.37;100.00
56070;BME280;41944;52.078;-0.058;2022-12-05T10:37:49;102052.11;;;8.46;99.46
56070;BME280;41944;52.078;-0.058;2022-12-05T10:40:19;102048.81;;;8.23;100.00
56070;BME280;41944;52.078;-0.058;2022-12-05T10:42:48;102054.90;;;8.38;99.99
56070;BME280;41944;52.078;-0.058;2022-12-05T10:45:18;102058.18;;;8.25;100.00
56070;BME280;41944;52.078;-0.058;2022-12-05T10:47:47;102062.04;;;8.46;100.00
56070;BME280;41944;52.078;-0.058;2022-12-05T10:50:21;102058.86;;;8.36;99.97
56070;BME280;41944;52.078;-0.058;2022-12-05T10:52:51;102066.43;;;8.55;99.71
56070;BME280;41944;52.078;-0.058;2022-12-05T10:55:19;102064.39;;;8.33;100.00
56070;BME280;41944;52.078;-0.058;2022-12-05T10:57:50;102067.76;;;8.46;100.00
56070;BME280;41944;52.078;-0.058;2022-12-05T11:00:22;102065.79;;;8.51;100.00
56070;BME280;41944;52.078;-0.058;2022-12-05T11:02:49;102064.58;;;8.46;100.00
56070;BME280;41944;52.078;-0.058;2022-12-05T11:05:28;102059.82;;;8.31;100.00
56070;BME280;41944;52.078;-0.058;2022-12-05T11:07:57;102058.26;;;8.33;100.00
56070;BME280;41944;52.078;-0.058;2022-12-05T11:10:29;102058.50;;;8.37;100.00
56070;BME280;41944;52.078;-0.058;2022-12-05T11:12:59;102056.30;;;8.24;100.00
56070;BME280;41944;52.078;-0.058;2022-12-05T11:15:28;102059.36;;;8.49;100.00
56070;BME280;41944;52.078;-0.058;2022-12-05T11:17:57;102059.16;;;8.40;99.73
56070;BME280;41944;52.078;-0.058;2022-12-05T11:20:38;102058.59;;;8.42;99.22
56070;BME280;41944;52.078;-0.058;2022-12-05T11:23:24;102055.39;;;8.14;100.00
56070;BME280;41944;52.078;-0.058;2022-12-05T11:25:53;102053.57;;;8.24;100.00
56070;BME280;41944;52.078;-0.058;2022-12-05T11:28:28;102055.44;;;8.35;100.00
56070;BME280;41944;52.078;-0.058;2022-12-05T11:30:56;102060.75;;;8.40;100.00
56070;BME280;41944;52.078;-0.058;2022-12-05T11:33:25;102059.23;;;8.49;100.00
56070;BME280;41944;52.078;-0.058;2022-12-05T11:35:54;102062.15;;;8.35;99.49
56070;BME280;41944;52.078;-0.058;2022-12-05T11:38:26;102059.45;;;8.44;99.75
56070;BME280;41944;52.078;-0.058;2022-12-05T11:41:07;102060.23;;;8.55;99.31
56070;BME280;41944;52.078;-0.058;2022-12-05T11:43:53;102058.16;;;8.59;99.11
56070;BME280;41944;52.078;-0.058;2022-12-05T11:46:27;102061.10;;;8.55;99.49
56070;BME280;41944;52.078;-0.058;2022-12-05T11:49:07;102062.81;;;8.61;99.56
56070;BME280;41944;52.078;-0.058;2022-12-05T11:51:43;102065.16;;;8.75;98.55
56070;BME280;41944;52.078;-0.058;2022-12-05T11:54:29;102061.23;;;8.54;99.66
56070;BME280;41944;52.078;-0.058;2022-12-05T11:57:01;102059.14;;;8.59;100.00
56070;BME280;41944;52.078;-0.058;2022-12-05T11:59:44;102058.01;;;8.72;99.86
56070;BME280;41944;52.078;-0.058;2022-12-05T12:02:26;102056.15;;;8.88;99.70
56070;BME280;41944;52.078;-0.058;2022-12-05T12:05:00;102052.38;;;8.91;99.55
56070;BME280;41944;52.078;-0.058;2022-12-05T12:07:42;102052.82;;;8.87;100.00
56070;BME280;41944;52.078;-0.058;2022-12-05T12:10:21;102053.31;;;8.92;99.54
56070;BME280;41944;52.078;-0.058;2022-12-05T12:13:04;102051.85;;;8.63;99.30
56070;BME280;41944;52.078;-0.058;2022-12-05T12:15:46;102051.29;;;8.89;99.43
56070;BME280;41944;52.078;-0.058;2022-12-05T12:18:30;102052.18;;;8.95;98.35
56070;BME280;41944;52.078;-0.058;2022-12-05T12:21:15;102050.64;;;8.93;98.07
56070;BME280;41944;52.078;-0.058;2022-12-05T12:23:53;102053.63;;;8.84;99.12
56070;BME280;41944;52.078;-0.058;2022-12-05T12:26:33;102053.27;;;8.81;98.82
56070;BME280;41944;52.078;-0.058;2022-12-05T12:29:14;102053.43;;;8.74;99.33
56070;BME280;41944;52.078;-0.058;2022-12-05T12:31:54;102053.51;;;8.69;98.09
56070;BME280;41944;52.078;-0.058;2022-12-05T12:34:40;102053.70;;;9.08;96.82
56070;BME280;41944;52.078;-0.058;2022-12-05T12:37:19;102055.36;;;9.05;97.39
56070;BME280;41944;52.078;-0.058;2022-12-05T12:39:55;102054.57;;;8.99;96.42
56070;BME280;41944;52.078;-0.058;2022-12-05T12:42:30;102053.56;;;8.95;96.98
56070;BME280;41944;52.078;-0.058;2022-12-05T12:45:42;102050.79;;;8.59;98.03
56070;BME280;41944;52.078;-0.058;2022-12-05T12:48:25;102053.04;;;8.94;97.65
56070;BME280;41944;52.078;-0.058;2022-12-05T12:51:00;102050.10;;;8.68;98.68
56070;BME280;41944;52.078;-0.058;2022-12-05T12:53:40;102053.20;;;8.88;98.56
56070;BME280;41944;52.078;-0.058;2022-12-05T12:56:21;102051.66;;;8.92;97.17
56070;BME280;41944;52.078;-0.058;2022-12-05T12:58:56;102055.93;;;9.00;97.44
56070;BME280;41944;52.078;-0.058;2022-12-05T13:01:32;102057.44;;;8.83;97.75
56070;BME280;41944;52.078;-0.058;2022-12-05T13:04:05;102051.68;;;8.87;97.47
56070;BME280;41944;52.078;-0.058;2022-12-05T13:06:40;102048.96;;;9.07;96.01